Maxie, Mississippi
Current Conditions -  °F | °C
As of 4:53 PM on Friday 31 Oct 2014 (Local Time) from KHBG Reporting Station
Scattered Clouds Scattered Clouds  
Wind Chill: 21°   Ceiling: Unl
Heat Index: 21°   Visibility: 10mi
Dew Point:   Wind: 17mph
Humidity: 42%   Direction: 330°NNW
Pressure: 30.02"   Gusts: 24mph
Location:  30.9811°N, 89.2354°W
Report Text: KHBG 312153Z AUTO 33015G21KT 10SM SCT060 21/08 A3002 RMK AO2 SLP166 T02110078
Loading
Personal Weather Stations






























Interactive Weather Map
Tropical Storm Tracking
New forecast layout! Learn more

10-Day Weather Forecast

Advertisements
Track Severe Weather on mobile